Time;durP1;ratioP1;P1;durP2;ratioP2;P2;SDS_P1;SDS_P2;PMS_P1;PMS_P2;Temp;Humidity;BMP_temperature;BMP_pressure;BME280_temperature;BME280_humidity;BME280_pressure;Samples;Min_cycle;Max_cycle;Signal;HPM_P1;HPM_P2
2022/08/17 00:00:23;;;;;;;1.05;0.95;;;;;;;25.01;48.51;100684.00;4993525;28;20072;-81
2022/08/17 00:03:10;;;;;;;2.03;1.33;;;;;;;24.95;48.44;100691.75;5009977;28;20030;-81
2022/08/17 00:05:39;;;;;;;0.82;0.82;;;;;;;25.01;48.67;100689.28;5011115;28;20038;-80
2022/08/17 00:08:05;;;;;;;0.82;0.70;;;;;;;24.95;48.65;100678.53;4977318;28;20026;-80
2022/08/17 00:10:30;;;;;;;0.52;0.50;;;;;;;25.00;48.84;100689.44;5009445;28;20049;-80
2022/08/17 00:12:56;;;;;;;0.45;0.45;;;;;;;24.98;48.38;100686.97;5009613;28;20084;-80
2022/08/17 00:15:21;;;;;;;0.85;0.85;;;;;;;24.99;48.70;100690.44;4993318;28;20037;-81
2022/08/17 00:17:48;;;;;;;0.55;0.50;;;;;;;24.98;48.80;100686.97;5009728;28;20121;-81
2022/08/17 00:20:14;;;;;;;1.85;1.30;;;;;;;24.90;48.59;100692.28;4993272;28;20038;-81
2022/08/17 00:22:39;;;;;;;1.33;1.15;;;;;;;24.93;49.00;100691.09;4993234;28;20072;-81
2022/08/17 00:25:08;;;;;;;0.73;0.60;;;;;;;24.81;49.02;100675.56;4993448;28;20041;-80
2022/08/17 00:27:34;;;;;;;0.52;0.52;;;;;;;24.83;49.16;100692.09;5009495;28;20483;-81
2022/08/17 00:29:59;;;;;;;0.40;0.40;;;;;;;24.77;49.32;100684.81;4993174;28;20058;-81
2022/08/17 00:32:25;;;;;;;1.40;1.30;;;;;;;24.79;48.76;100698.72;4993309;28;20060;-81
2022/08/17 00:34:51;;;;;;;0.98;0.90;;;;;;;24.69;49.11;100684.84;4977145;28;20077;-81
2022/08/17 00:37:16;;;;;;;1.60;1.35;;;;;;;24.57;49.80;100688.78;5009404;28;20112;-81
2022/08/17 00:39:42;;;;;;;0.65;0.65;;;;;;;24.44;49.82;100675.22;4993359;28;20475;-81
2022/08/17 00:42:15;;;;;;;0.60;0.60;;;;;;;24.48;49.94;100692.41;5009226;28;20060;-80
2022/08/17 00:44:41;;;;;;;1.52;0.82;;;;;;;24.47;50.34;100681.00;4993397;28;20045;-80
2022/08/17 00:47:06;;;;;;;2.53;1.85;;;;;;;24.20;50.63;100666.25;4993175;28;20034;-80
2022/08/17 00:49:32;;;;;;;0.75;0.70;;;;;;;24.29;50.51;100677.66;5009560;28;20438;-80
2022/08/17 00:52:05;;;;;;;1.27;1.17;;;;;;;24.10;50.80;100662.91;4993238;28;20483;-81
2022/08/17 00:54:33;;;;;;;0.70;0.70;;;;;;;24.34;50.45;100677.19;5009975;28;20088;-81
2022/08/17 00:57:15;;;;;;;0.50;0.50;;;;;;;24.17;50.42;100671.81;4992754;28;20028;-80
2022/08/17 00:59:44;;;;;;;0.85;0.65;;;;;;;24.13;50.39;100667.03;4993891;28;20409;-80
2022/08/17 01:02:11;;;;;;;0.68;0.43;;;;;;;24.22;50.98;100682.75;5009547;28;20121;-81
2022/08/17 01:04:37;;;;;;;1.27;0.95;;;;;;;24.23;50.58;100670.38;4993179;28;20032;-80
2022/08/17 01:07:02;;;;;;;1.42;1.23;;;;;;;24.26;50.76;100683.25;5026194;28;20038;-81
2022/08/17 01:09:28;;;;;;;0.82;0.77;;;;;;;24.25;50.49;100690.34;5009482;28;20057;-80
2022/08/17 01:11:53;;;;;;;1.02;0.85;;;;;;;24.32;50.44;100685.28;4992507;28;20482;-81
2022/08/17 01:14:20;;;;;;;1.33;0.85;;;;;;;24.36;50.77;100688.41;4992754;28;20080;-81
2022/08/17 01:16:46;;;;;;;1.13;1.02;;;;;;;24.36;50.53;100694.53;4976897;28;20041;-81
2022/08/17 01:19:20;;;;;;;0.90;0.80;;;;;;;24.33;50.87;100683.47;4992679;28;20022;-80
2022/08/17 01:21:57;;;;;;;1.85;1.13;;;;;;;24.41;50.82;100686.13;4993059;28;20058;-80
2022/08/17 01:24:23;;;;;;;1.20;1.10;;;;;;;24.24;50.36;100674.66;5011404;28;20493;-80
2022/08/17 01:26:48;;;;;;;1.45;1.02;;;;;;;24.33;50.56;100679.00;4995902;28;20034;-80
2022/08/17 01:29:14;;;;;;;1.83;1.45;;;;;;;24.39;50.49;100685.47;5029289;28;20034;-80
2022/08/17 01:31:45;;;;;;;1.35;0.98;;;;;;;24.31;50.23;100663.31;5012642;28;20037;-80
2022/08/17 01:34:12;;;;;;;1.40;1.05;;;;;;;24.31;50.47;100676.53;5012555;28;20064;-80
2022/08/17 01:36:39;;;;;;;0.40;0.40;;;;;;;24.22;50.03;100661.63;4996384;28;20557;-80
2022/08/17 01:39:08;;;;;;;1.35;1.20;;;;;;;24.18;50.26;100664.72;4996154;28;20410;-81
2022/08/17 01:41:34;;;;;;;0.70;0.50;;;;;;;24.35;50.01;100676.19;4979931;28;20053;-80
2022/08/17 01:44:01;;;;;;;1.10;0.60;;;;;;;24.34;50.64;100674.53;4996053;28;20061;-80
2022/08/17 01:46:29;;;;;;;0.93;0.90;;;;;;;24.16;50.73;100656.97;4996293;28;20605;-80
2022/08/17 01:48:56;;;;;;;0.80;0.70;;;;;;;24.29;50.16;100677.66;5012376;28;20641;-81
2022/08/17 01:51:22;;;;;;;1.10;0.95;;;;;;;24.19;50.87;100672.50;4995937;28;20117;-80
2022/08/17 01:53:50;;;;;;;2.78;1.70;;;;;;;23.83;50.79;100634.09;4996119;28;20044;-81
2022/08/17 01:56:18;;;;;;;2.95;1.67;;;;;;;23.97;50.82;100662.53;4995518;28;20029;-80
2022/08/17 01:58:44;;;;;;;0.88;0.88;;;;;;;23.94;51.18;100662.84;5012437;28;20037;-80
2022/08/17 02:01:11;;;;;;;1.77;1.38;;;;;;;23.95;51.14;100677.72;5028285;28;20482;-80
2022/08/17 02:03:36;;;;;;;0.98;0.88;;;;;;;23.90;51.36;100670.28;4996080;28;20026;-80
2022/08/17 02:06:03;;;;;;;1.17;0.88;;;;;;;23.99;51.51;100676.41;5011953;28;20040;-81
2022/08/17 02:08:31;;;;;;;0.80;0.75;;;;;;;23.94;51.06;100662.84;4995868;28;20113;-80
2022/08/17 02:10:56;;;;;;;1.58;1.48;;;;;;;23.95;51.54;100677.72;4979685;28;20026;-80
2022/08/17 02:13:22;;;;;;;1.08;1.00;;;;;;;23.94;51.14;100660.22;4979435;28;20034;-81
2022/08/17 02:15:47;;;;;;;1.38;1.25;;;;;;;23.97;51.23;100676.56;4995424;28;20109;-81
2022/08/17 02:18:14;;;;;;;0.70;0.70;;;;;;;23.98;51.55;100674.75;5011608;28;20080;-80
2022/08/17 02:20:40;;;;;;;0.95;0.82;;;;;;;23.73;51.60;100656.19;4995727;28;20034;-81
2022/08/17 02:23:07;;;;;;;1.27;0.95;;;;;;;23.81;51.54;100654.56;5011458;28;20617;-81
2022/08/17 02:25:33;;;;;;;0.70;0.68;;;;;;;23.74;51.55;100638.53;4995187;28;20510;-80
2022/08/17 02:27:58;;;;;;;1.10;0.85;;;;;;;23.82;51.71;100662.34;4995448;28;20065;-80
2022/08/17 02:30:25;;;;;;;0.60;0.60;;;;;;;23.88;51.93;100663.50;4979119;28;20505;-81
2022/08/17 02:32:51;;;;;;;1.17;1.08;;;;;;;23.74;52.12;100654.38;5011308;28;20041;-80
2022/08/17 02:35:17;;;;;;;1.17;0.95;;;;;;;23.80;51.95;100671.41;4995283;28;20026;-81
2022/08/17 02:37:42;;;;;;;0.77;0.70;;;;;;;23.77;51.74;100677.00;4979000;28;20088;-80
2022/08/17 02:40:08;;;;;;;1.30;1.20;;;;;;;23.69;52.22;100670.69;4995086;28;20061;-81
2022/08/17 02:42:37;;;;;;;1.00;0.93;;;;;;;23.75;52.23;100674.50;5011458;28;20072;-80
2022/08/17 02:45:04;;;;;;;1.75;1.42;;;;;;;23.50;52.23;100659.50;4995360;28;20030;-80
2022/08/17 02:47:30;;;;;;;0.85;0.82;;;;;;;23.51;51.82;100667.28;4995001;28;20064;-80
2022/08/17 02:49:55;;;;;;;0.77;0.50;;;;;;;23.51;52.09;100667.28;5027746;28;20057;-80
2022/08/17 02:52:21;;;;;;;0.70;0.60;;;;;;;23.65;52.14;100685.19;4978671;28;20483;-81
2022/08/17 02:54:47;;;;;;;0.77;0.68;;;;;;;23.48;51.70;100657.84;5010902;28;20037;-80
2022/08/17 02:57:12;;;;;;;0.60;0.60;;;;;;;23.67;51.60;100677.94;5010936;28;20490;-80
2022/08/17 02:59:38;;;;;;;0.80;0.73;;;;;;;23.70;52.04;100682.94;5011156;28;20037;-80
2022/08/17 03:02:05;;;;;;;1.35;1.25;;;;;;;23.72;51.62;100688.88;5010778;28;20093;-82
2022/08/17 03:04:31;;;;;;;0.55;0.55;;;;;;;23.79;52.50;100686.41;4978396;28;20037;-81
2022/08/17 03:06:56;;;;;;;0.47;0.47;;;;;;;23.77;51.75;100677.00;4978419;28;20064;-81
2022/08/17 03:09:22;;;;;;;0.77;0.63;;;;;;;23.79;51.44;100688.22;4994017;28;20068;-82
2022/08/17 03:11:49;;;;;;;0.43;0.43;;;;;;;23.70;51.62;100685.56;4978281;28;20065;-82
2022/08/17 03:14:15;;;;;;;0.80;0.50;;;;;;;23.65;51.64;100676.44;4995171;28;20486;-82
2022/08/17 03:16:41;;;;;;;0.65;0.65;;;;;;;23.63;51.77;100676.63;4994472;28;20100;-82
2022/08/17 03:19:06;;;;;;;1.20;0.90;;;;;;;23.66;52.23;100675.47;5026885;28;20437;-81
2022/08/17 03:21:32;;;;;;;2.50;1.50;;;;;;;23.71;51.74;100684.56;5010070;28;20054;-83
2022/08/17 03:23:57;;;;;;;0.90;0.75;;;;;;;23.78;52.25;100695.31;4994239;28;20029;-82
2022/08/17 03:26:23;;;;;;;0.73;0.73;;;;;;;23.68;52.69;100687.53;4994353;28;20030;-82
2022/08/17 03:28:48;;;;;;;1.05;0.98;;;;;;;23.51;52.41;100688.41;5027010;28;20483;-82
2022/08/17 03:31:14;;;;;;;1.35;0.85;;;;;;;23.52;52.59;100690.06;5010525;28;20069;-81
2022/08/17 03:33:39;;;;;;;1.13;1.02;;;;;;;23.40;52.92;100681.59;4994361;28;20034;-81
2022/08/17 03:36:05;;;;;;;0.63;0.63;;;;;;;23.54;52.18;100705.75;5026849;28;20034;-80
2022/08/17 03:38:32;;;;;;;0.70;0.70;;;;;;;23.55;52.47;100699.47;4994243;28;20032;-81
2022/08/17 03:40:57;;;;;;;0.50;0.50;;;;;;;23.46;52.75;100693.31;4994272;28;20072;-82
2022/08/17 03:43:23;;;;;;;0.52;0.40;;;;;;;23.46;52.62;100690.69;4977924;28;20030;-81
2022/08/17 03:57:17;;;;;;;1.48;0.77;;;;;;;23.68;52.17;100716.56;4990487;28;20041;-81
2022/08/17 03:59:42;;;;;;;1.50;1.13;;;;;;;23.66;51.90;100707.97;4988168;28;20045;-81
2022/08/17 04:02:11;;;;;;;5.28;0.93;;;;;;;23.70;51.66;100711.16;5002362;28;20101;-82
2022/08/17 04:04:37;;;;;;;1.17;0.93;;;;;;;23.62;52.05;100689.97;4977444;28;20526;-82
2022/08/17 04:07:04;;;;;;;1.40;1.17;;;;;;;23.78;53.04;100705.06;5005866;28;20082;-82
2022/08/17 04:09:29;;;;;;;0.90;0.60;;;;;;;23.88;52.08;100718.97;4990225;28;20040;-81
2022/08/17 04:11:56;;;;;;;1.60;0.70;;;;;;;23.91;51.82;100721.31;4990190;28;20045;-82
2022/08/17 04:14:21;;;;;;;1.58;0.90;;;;;;;23.96;51.78;100729.56;4990045;28;20081;-81
2022/08/17 04:16:47;;;;;;;1.52;0.65;;;;;;;23.96;52.07;100735.69;4989662;28;20031;-82
2022/08/17 04:19:12;;;;;;;0.98;0.93;;;;;;;23.96;51.82;100724.28;5002779;28;20034;-90
2022/08/17 04:21:38;;;;;;;2.78;1.42;;;;;;;23.97;51.57;100725.94;4972499;28;20057;-87
2022/08/17 04:24:04;;;;;;;1.42;1.20;;;;;;;23.89;51.95;100715.34;4971852;28;20115;-83
2022/08/17 04:26:30;;;;;;;0.98;0.75;;;;;;;24.09;51.03;100729.13;4972816;28;20022;-82
2022/08/17 04:28:55;;;;;;;0.80;0.80;;;;;;;24.10;51.26;100736.91;4972197;28;20062;-82
2022/08/17 04:31:21;;;;;;;1.13;1.02;;;;;;;24.12;50.80;100729.66;4956363;28;20034;-82
2022/08/17 04:33:47;;;;;;;1.10;1.00;;;;;;;24.15;51.47;100739.06;4973672;28;20411;-82
2022/08/17 04:36:13;;;;;;;1.55;1.10;;;;;;;24.28;51.11;100747.34;4973305;28;20045;-81
2022/08/17 04:38:40;;;;;;;0.80;0.70;;;;;;;24.23;50.80;100737.28;4989693;28;20027;-82
2022/08/17 04:43:53;;;;;;;0.82;0.60;;;;;;;24.29;51.19;100736.66;4974967;28;20100;-88
2022/08/17 04:46:20;;;;;;;0.43;0.43;;;;;;;24.33;51.11;100739.00;4990528;28;20030;-90
2022/08/17 04:48:48;;;;;;;1.10;0.93;;;;;;;24.40;50.96;100745.28;4973217;28;20507;-84
2022/08/17 04:51:24;;;;;;;0.95;0.75;;;;;;;24.38;51.04;100749.88;4973994;28;20022;-84
2022/08/17 04:53:52;;;;;;;1.15;1.00;;;;;;;24.40;51.04;100742.66;4990015;28;20041;-83
2022/08/17 04:56:18;;;;;;;1.10;0.95;;;;;;;24.54;50.95;100742.00;4991912;28;20096;-83
2022/08/17 04:58:47;;;;;;;1.10;0.70;;;;;;;24.65;51.26;100749.63;5011704;28;20541;-85
2022/08/17 05:01:14;;;;;;;0.95;0.60;;;;;;;24.67;50.79;100734.41;4995591;28;20061;-83
2022/08/17 05:03:40;;;;;;;1.42;1.30;;;;;;;24.83;50.19;100746.84;4977541;28;20038;-92
2022/08/17 05:06:06;;;;;;;1.20;1.10;;;;;;;24.60;50.30;100718.38;4963333;28;20085;-88
2022/08/17 05:08:31;;;;;;;1.25;1.05;;;;;;;24.82;50.33;100748.66;4995362;28;20413;-89
2022/08/17 05:10:57;;;;;;;1.13;1.02;;;;;;;24.78;50.39;100739.41;5009359;28;20037;-89
2022/08/17 05:13:24;;;;;;;1.08;0.80;;;;;;;24.76;50.36;100728.13;4976689;28;20084;-88
2022/08/17 05:15:53;;;;;;;0.50;0.43;;;;;;;24.97;50.16;100762.03;4993086;28;20078;-86
2022/08/17 05:18:19;;;;;;;0.77;0.77;;;;;;;25.03;50.11;100755.31;4976673;28;20037;-84
2022/08/17 05:20:45;;;;;;;1.23;0.90;;;;;;;25.12;49.72;100759.59;4975992;28;20407;-82
2022/08/17 05:23:13;;;;;;;1.08;0.90;;;;;;;25.19;49.55;100755.31;4993227;28;20051;-90
2022/08/17 05:25:41;;;;;;;1.45;1.08;;;;;;;25.32;49.53;100758.25;4963632;28;20034;-91
2022/08/17 05:28:06;;;;;;;0.73;0.63;;;;;;;25.41;49.55;100759.91;4980164;28;20030;-93
2022/08/17 05:30:32;;;;;;;1.80;1.30;;;;;;;25.38;48.45;100754.97;4962855;28;20038;-88
2022/08/17 05:33:07;;;;;;;0.93;0.85;;;;;;;25.49;48.79;100753.78;4960320;28;20512;-92
2022/08/17 05:35:34;;;;;;;1.85;1.45;;;;;;;25.70;48.27;100763.84;4995209;28;20034;-92
2022/08/17 05:37:59;;;;;;;0.88;0.82;;;;;;;25.76;48.24;100757.84;4998363;28;20112;-89
2022/08/17 05:40:25;;;;;;;0.80;0.80;;;;;;;25.91;47.93;100766.75;4976673;28;20022;-90
2022/08/17 05:42:52;;;;;;;0.98;0.90;;;;;;;25.96;47.31;100759.13;4993024;28;20026;-92
2022/08/17 05:45:18;;;;;;;2.08;1.50;;;;;;;26.05;47.31;100761.72;4976377;28;20034;-84
2022/08/17 05:47:44;;;;;;;1.33;1.05;;;;;;;26.03;46.69;100749.47;4991891;28;20014;-88
2022/08/17 05:50:25;;;;;;;1.42;1.25;;;;;;;26.13;46.69;100764.34;4976103;28;20037;-84
2022/08/17 05:53:11;;;;;;;0.90;0.90;;;;;;;26.19;46.68;100774.28;4977248;28;20042;-92
2022/08/17 05:55:40;;;;;;;1.48;1.33;;;;;;;26.32;46.64;100774.53;4992539;28;20031;-92
2022/08/17 05:58:33;;;;;;;0.90;0.80;;;;;;;26.51;46.33;100774.13;4993254;28;20105;-86
2022/08/17 06:01:02;;;;;;;1.35;1.20;;;;;;;26.59;45.58;100776.72;4991979;28;20073;-80
2022/08/17 06:03:33;;;;;;;1.58;1.48;;;;;;;26.75;45.32;100780.31;4991286;28;20025;-89
2022/08/17 06:06:06;;;;;;;3.35;1.08;;;;;;;26.77;45.45;100775.63;5012290;28;20034;-86
2022/08/17 06:09:00;;;;;;;2.38;1.60;;;;;;;26.84;45.09;100758.84;5010303;28;20038;-84
2022/08/17 06:11:35;;;;;;;1.52;1.42;;;;;;;27.03;44.44;100780.59;4991175;28;20117;-85
2022/08/17 06:14:20;;;;;;;2.35;1.08;;;;;;;26.94;43.97;100753.28;4992995;28;20034;-83
2022/08/17 06:16:48;;;;;;;1.38;1.27;;;;;;;27.07;44.25;100766.78;4991195;28;20422;-82
2022/08/17 06:19:15;;;;;;;0.98;0.88;;;;;;;27.26;43.37;100783.25;4975125;28;20850;-82
2022/08/17 06:21:43;;;;;;;1.02;0.90;;;;;;;27.31;43.46;100781.69;4991332;28;20065;-81
2022/08/17 06:24:28;;;;;;;8.73;1.60;;;;;;;27.35;42.94;100784.81;4991495;28;20756;-81
2022/08/17 06:26:56;;;;;;;1.75;1.25;;;;;;;27.47;42.56;100779.88;4994870;28;20033;-83
2022/08/17 06:29:51;;;;;;;1.33;1.10;;;;;;;27.46;42.26;100768.44;4959504;28;20030;-83
2022/08/17 06:32:17;;;;;;;1.58;1.38;;;;;;;27.52;42.57;100758.91;4991123;28;20030;-84
2022/08/17 06:34:44;;;;;;;1.52;1.08;;;;;;;27.68;41.90;100780.03;4974508;28;20467;-88
2022/08/17 06:37:32;;;;;;;1.10;0.88;;;;;;;27.80;41.59;100785.69;4958722;28;20392;-83
2022/08/17 06:40:16;;;;;;;0.57;0.57;;;;;;;27.87;41.34;100786.63;4984190;28;20116;-82
2022/08/17 06:42:56;;;;;;;0.80;0.80;;;;;;;27.86;41.22;100771.69;4990963;28;20045;-85
2022/08/17 06:45:33;;;;;;;1.58;1.08;;;;;;;28.07;41.52;100781.56;4974872;28;20026;-84
2022/08/17 06:48:17;;;;;;;2.58;2.22;;;;;;;28.12;41.17;100777.34;4990760;28;20026;-80
2022/08/17 06:50:55;;;;;;;2.03;1.80;;;;;;;28.17;41.04;100772.28;4991416;28;20125;-84
2022/08/17 06:53:44;;;;;;;1.30;1.20;;;;;;;28.38;40.68;100782.19;4958080;28;20041;-83
2022/08/17 06:56:12;;;;;;;1.00;0.90;;;;;;;28.47;40.97;100781.06;4979862;28;20096;-83
2022/08/17 06:58:39;;;;;;;0.77;0.65;;;;;;;28.55;41.08;100764.97;4989531;28;20135;-85
2022/08/17 07:01:22;;;;;;;2.85;1.63;;;;;;;28.71;39.92;100779.88;4989173;28;20479;-85
2022/08/17 07:04:20;;;;;;;1.92;1.73;;;;;;;28.84;39.31;100780.00;4959516;28;20038;-87
2022/08/17 07:09:57;;;;;;;0.75;0.75;;;;;;;28.99;39.08;100787.94;4989966;28;20427;-86
2022/08/17 07:12:36;;;;;;;1.10;0.93;;;;;;;28.86;38.82;100791.28;4973779;28;20411;-86
2022/08/17 07:15:04;;;;;;;1.38;1.27;;;;;;;28.82;39.55;100789.22;4958188;28;20023;-84
2022/08/17 07:17:31;;;;;;;1.65;1.38;;;;;;;28.82;39.10;100782.03;4974309;28;20120;-87
2022/08/17 07:20:04;;;;;;;1.05;0.93;;;;;;;29.07;38.88;100795.81;4979171;28;20027;-86
2022/08/17 07:22:41;;;;;;;3.63;1.85;;;;;;;29.04;39.10;100793.53;4973454;28;20100;-87
2022/08/17 07:25:09;;;;;;;1.50;1.20;;;;;;;29.27;38.40;100795.16;4989513;28;20045;-87
2022/08/17 07:27:36;;;;;;;1.42;1.20;;;;;;;29.40;38.63;100793.44;4972167;28;20033;-85
2022/08/17 07:30:16;;;;;;;2.65;1.55;;;;;;;29.50;37.91;100802.94;4987901;28;20034;-85
2022/08/17 07:32:50;;;;;;;1.13;1.02;;;;;;;29.56;37.82;100778.16;4989800;28;20483;-84
2022/08/17 07:35:19;;;;;;;1.90;1.60;;;;;;;29.77;37.26;100795.94;4973093;28;20027;-85
2022/08/17 07:38:11;;;;;;;4.65;3.70;;;;;;;29.59;38.04;100777.78;4989785;28;20117;-84
2022/08/17 07:41:02;;;;;;;1.42;1.27;;;;;;;29.95;37.50;100791.72;4958163;28;20036;-83
2022/08/17 07:43:36;;;;;;;1.20;1.00;;;;;;;30.09;35.31;100789.13;4989587;28;20034;-86
2022/08/17 07:49:06;;;;;;;1.58;1.48;;;;;;;30.21;34.83;100792.91;4988846;28;20096;-87
2022/08/17 07:51:34;;;;;;;1.77;1.17;;;;;;;30.25;35.82;100788.81;4992896;28;20014;-88
2022/08/17 07:54:02;;;;;;;1.35;1.15;;;;;;;30.32;35.79;100780.84;4990493;28;20026;-88
2022/08/17 07:56:36;;;;;;;1.27;1.00;;;;;;;30.18;36.06;100775.44;4973594;28;20034;-86
2022/08/17 07:59:11;;;;;;;1.75;1.33;;;;;;;30.36;36.11;100774.88;4989418;28;20101;-84
2022/08/17 08:01:37;;;;;;;1.92;1.35;;;;;;;30.43;35.17;100770.38;4976251;28;20117;-88
2022/08/17 08:04:40;;;;;;;1.52;1.17;;;;;;;30.52;35.80;100779.03;4992923;28;20543;-91
2022/08/17 08:07:16;;;;;;;2.22;1.73;;;;;;;30.69;36.46;100774.19;4996022;28;20108;-91
2022/08/17 08:09:58;;;;;;;1.45;1.33;;;;;;;30.81;35.78;100794.75;5005610;28;20546;-90
2022/08/17 08:12:28;;;;;;;;;;;;;;;30.91;35.20;100788.16;4978188;28;20060;-89
2022/08/17 08:15:16;;;;;;;2.50;1.02;;;;;;;30.89;35.36;100783.03;5008427;28;19914;-85
2022/08/17 08:18:04;;;;;;;1.70;1.42;;;;;;;30.81;35.40;100777.88;4995607;28;20403;-91
2022/08/17 08:20:39;;;;;;;1.42;1.33;;;;;;;30.89;35.15;100775.03;4991323;28;20033;-86
2022/08/17 08:23:24;;;;;;;1.90;1.58;;;;;;;31.07;34.99;100785.06;4990851;28;20568;-86
2022/08/17 08:26:12;;;;;;;1.95;1.58;;;;;;;30.99;34.44;100780.78;5006815;28;20034;-83
2022/08/17 08:29:00;;;;;;;2.58;1.02;;;;;;;31.00;34.34;100773.59;5009711;28;20029;-82
2022/08/17 08:32:00;;;;;;;1.45;1.10;;;;;;;31.08;34.62;100760.03;5007179;28;20030;-83
2022/08/17 08:34:44;;;;;;;1.52;1.23;;;;;;;31.26;33.61;100767.44;4993910;28;20046;-82
2022/08/17 08:37:19;;;;;;;3.30;2.15;;;;;;;31.36;34.06;100770.50;4977425;28;20057;-86
2022/08/17 08:39:54;;;;;;;1.67;1.30;;;;;;;31.51;33.97;100763.09;4993504;28;20104;-85
2022/08/17 08:42:38;;;;;;;1.52;1.23;;;;;;;31.41;33.55;100762.69;4992902;28;20054;-89
2022/08/17 08:45:15;;;;;;;1.52;1.25;;;;;;;31.48;33.75;100757.34;4994601;28;20031;-91
2022/08/17 08:47:58;;;;;;;1.15;1.05;;;;;;;31.50;33.27;100739.22;4980160;28;20088;-92
2022/08/17 08:50:47;;;;;;;1.52;1.33;;;;;;;31.62;34.11;100754.41;5014959;28;20026;-90
2022/08/17 08:53:28;;;;;;;1.27;1.05;;;;;;;31.78;33.98;100749.69;5012898;28;20030;-86
2022/08/17 08:56:27;;;;;;;1.67;1.40;;;;;;;31.85;33.78;100753.13;5012516;28;20030;-84
2022/08/17 08:59:26;;;;;;;2.03;1.23;;;;;;;31.79;33.62;100730.75;5012784;28;20312;-85
2022/08/17 09:02:04;;;;;;;2.13;1.80;;;;;;;31.94;33.55;100752.69;5013143;28;20092;-85
2022/08/17 09:04:40;;;;;;;2.45;1.90;;;;;;;32.02;33.34;100751.63;5013819;28;20070;-93
2022/08/17 09:07:26;;;;;;;1.27;0.85;;;;;;;32.21;33.97;100753.38;4996112;28;20458;-85
2022/08/17 09:10:02;;;;;;;3.55;2.28;;;;;;;32.23;33.05;100737.94;5012295;28;20806;-86
2022/08/17 09:12:55;;;;;;;2.33;1.25;;;;;;;32.48;33.20;100747.94;4996510;28;20411;-87
2022/08/17 09:15:33;;;;;;;2.15;1.73;;;;;;;32.52;33.14;100749.94;5004747;28;20476;-86
2022/08/17 09:18:08;;;;;;;5.00;1.17;;;;;;;32.42;32.83;100752.28;4978318;28;20039;-85
2022/08/17 09:20:39;;;;;;;1.23;1.05;;;;;;;32.30;33.60;100753.19;5008396;28;20026;-86
2022/08/17 09:23:08;;;;;;;1.90;1.43;;;;;;;32.58;32.99;100748.28;5008882;28;20109;-87
2022/08/17 09:25:48;;;;;;;1.15;1.00;;;;;;;32.67;33.44;100741.63;5008212;28;20034;-91
2022/08/17 09:28:35;;;;;;;1.63;1.10;;;;;;;32.89;33.10;100744.75;4992397;28;20026;-88
2022/08/17 09:31:08;;;;;;;1.20;1.10;;;;;;;32.88;32.87;100742.31;4994337;28;20034;-86
2022/08/17 09:33:38;;;;;;;1.40;1.20;;;;;;;33.02;32.56;100744.63;5000494;28;20022;-86
2022/08/17 09:36:24;;;;;;;1.42;0.98;;;;;;;32.96;32.56;100734.00;4976452;28;20030;-83
2022/08/17 09:38:57;;;;;;;3.58;2.10;;;;;;;32.86;32.79;100736.34;4996561;28;20037;-94
2022/08/17 09:41:42;;;;;;;2.22;1.80;;;;;;;33.12;32.55;100725.38;5003519;28;20134;-93
2022/08/17 09:44:25;;;;;;;1.65;1.38;;;;;;;33.30;32.05;100736.13;4959700;28;20041;-86
2022/08/17 09:47:03;;;;;;;2.15;1.67;;;;;;;33.24;31.89;100710.22;4960096;28;20034;-85
2022/08/17 09:49:46;;;;;;;3.45;1.98;;;;;;;33.14;31.62;100726.00;4993108;28;20483;-82
2022/08/17 09:52:15;;;;;;;2.05;1.20;;;;;;;33.33;32.63;100735.72;4984337;28;20038;-80
2022/08/17 09:54:41;;;;;;;1.83;1.50;;;;;;;33.47;32.18;100735.59;5012543;28;20030;-82
2022/08/17 09:57:06;;;;;;;1.38;1.17;;;;;;;33.50;31.65;100716.38;5002084;28;20049;-86
2022/08/17 10:00:11;;;;;;;1.73;1.52;;;;;;;33.50;31.90;100716.38;4993477;28;20101;-89
2022/08/17 10:03:10;;;;;;;1.10;0.98;;;;;;;33.67;31.02;100728.16;4990744;28;20077;-84
2022/08/17 10:05:48;;;;;;;1.80;1.50;;;;;;;33.64;30.41;100725.91;4993366;28;20037;-85
2022/08/17 10:09:06;;;;;;;1.05;0.93;;;;;;;33.65;29.67;100724.88;4993699;28;20578;-84
2022/08/17 10:14:39;;;;;;;1.30;1.10;;;;;;;33.94;29.43;100715.25;4978685;28;20173;-82
2022/08/17 10:17:17;;;;;;;1.17;0.98;;;;;;;34.20;28.33;100708.69;4991316;28;20118;-83
2022/08/17 10:20:09;;;;;;;2.25;1.48;;;;;;;34.36;27.77;100713.41;5001900;28;20021;-83
2022/08/17 10:28:08;;;;;;;2.10;1.00;;;;;;;34.14;26.87;100688.16;4989912;28;20135;-85
2022/08/17 10:30:36;;;;;;;1.88;1.20;;;;;;;34.03;26.63;100696.97;4991656;28;20037;-85
2022/08/17 10:33:05;;;;;;;2.00;1.40;;;;;;;34.23;27.33;100716.31;4992918;28;20487;-87
2022/08/17 10:35:34;;;;;;;2.85;1.30;;;;;;;34.05;27.16;100713.66;4978670;28;20033;-82
2022/08/17 10:38:18;;;;;;;1.48;1.30;;;;;;;34.08;27.48;100692.53;5011405;28;20026;-87
2022/08/17 10:40:50;;;;;;;1.10;0.93;;;;;;;34.24;27.05;100715.25;5012218;28;20033;-85
2022/08/17 10:43:43;;;;;;;1.38;1.23;;;;;;;34.33;27.09;100697.78;5010864;28;20490;-87
2022/08/17 10:46:26;;;;;;;2.08;1.42;;;;;;;34.20;27.09;100698.75;5000421;28;20181;-83
2022/08/17 10:49:10;;;;;;;1.42;1.15;;;;;;;34.33;26.65;100697.78;4975670;28;20030;-92
2022/08/17 10:51:37;;;;;;;1.38;1.13;;;;;;;34.37;26.26;100704.31;4991367;28;20034;-89
2022/08/17 10:54:04;;;;;;;1.80;1.15;;;;;;;34.36;26.64;100686.56;4961899;28;20040;-88
2022/08/17 10:56:44;;;;;;;2.47;1.85;;;;;;;34.56;26.30;100706.94;4990979;28;20037;-83
2022/08/17 10:59:30;;;;;;;5.78;1.73;;;;;;;34.65;26.59;100689.44;4986957;28;20030;-85
2022/08/17 11:02:33;;;;;;;1.83;1.52;;;;;;;34.83;25.94;100697.41;4990778;28;20033;-83
2022/08/17 11:04:59;;;;;;;1.73;1.40;;;;;;;34.92;26.84;100696.03;4994350;28;20071;-86
2022/08/17 11:07:36;;;;;;;1.35;1.25;;;;;;;35.05;26.34;100697.66;5003127;28;20105;-89
2022/08/17 11:10:24;;;;;;;3.90;2.25;;;;;;;34.77;26.54;100687.59;5011517;28;20026;-83
2022/08/17 11:13:00;;;;;;;2.03;1.48;;;;;;;34.91;25.42;100689.03;5008905;28;20107;-83
2022/08/17 11:15:44;;;;;;;1.52;1.17;;;;;;;35.02;26.43;100690.09;5009689;28;20456;-82
2022/08/17 11:18:21;;;;;;;1.25;1.00;;;;;;;35.12;25.64;100676.88;5009409;28;20033;-83
2022/08/17 11:20:49;;;;;;;2.13;1.40;;;;;;;35.17;25.47;100671.59;4974659;28;20038;-85
2022/08/17 11:23:36;;;;;;;0.98;0.88;;;;;;;35.02;25.33;100668.56;4992103;28;20061;-84
2022/08/17 11:26:02;;;;;;;2.97;1.60;;;;;;;35.06;25.73;100681.31;4993000;28;20038;-83
2022/08/17 11:28:34;;;;;;;1.45;1.30;;;;;;;35.20;26.12;100667.59;5010105;28;20022;-83
2022/08/17 11:31:06;;;;;;;1.10;1.00;;;;;;;35.11;25.68;100682.47;5009946;28;20495;-85
2022/08/17 11:33:31;;;;;;;;;;;;;;;35.10;25.37;100678.13;5007111;28;20040;-85
2022/08/17 11:36:21;;;;;;;2.60;2.10;;;;;;;35.21;25.46;100671.94;5010824;28;19996;-84
2022/08/17 11:39:05;;;;;;;1.48;1.05;;;;;;;35.26;25.86;100672.03;5009908;28;20022;-86
2022/08/17 11:41:56;;;;;;;1.50;1.15;;;;;;;35.50;26.66;100668.28;5009927;28;20034;-85
2022/08/17 11:44:51;;;;;;;1.30;1.20;;;;;;;35.58;25.40;100667.06;5009892;28;20066;-85
2022/08/17 11:53:04;;;;;;;3.90;1.45;;;;;;;35.26;25.36;100650.53;4990362;28;20522;-86
2022/08/17 11:55:31;;;;;;;1.55;1.20;;;;;;;35.40;25.17;100653.78;4990026;28;20125;-84
2022/08/17 11:58:02;;;;;;;1.50;1.38;;;;;;;35.62;25.14;100663.69;4990651;28;20057;-84
2022/08/17 12:01:03;;;;;;;1.85;1.20;;;;;;;35.76;24.29;100653.44;4991370;28;20432;-93
2022/08/17 12:03:32;;;;;;;1.45;1.30;;;;;;;35.74;24.56;100649.38;4964402;28;20041;-86
2022/08/17 12:06:16;;;;;;;5.13;3.78;;;;;;;35.71;24.88;100612.19;4990529;28;20041;-82
2022/08/17 12:08:44;;;;;;;2.17;1.55;;;;;;;36.04;24.96;100643.75;4992811;28;20062;-85
2022/08/17 12:11:30;;;;;;;3.78;1.77;;;;;;;36.00;24.85;100626.47;4986805;28;20109;-87
2022/08/17 12:13:57;;;;;;;2.03;1.60;;;;;;;36.14;24.91;100639.34;4991352;28;20039;-86
2022/08/17 12:16:23;;;;;;;2.45;1.65;;;;;;;35.89;24.19;100633.50;4980475;28;20033;-85
2022/08/17 12:19:01;;;;;;;2.60;1.75;;;;;;;35.92;24.84;100644.63;5000533;28;20038;-83
2022/08/17 12:21:47;;;;;;;2.25;1.90;;;;;;;35.78;24.91;100645.13;5001331;28;20086;-91
2022/08/17 12:24:40;;;;;;;1.35;1.17;;;;;;;35.69;25.14;100630.41;4991145;28;20038;-84
2022/08/17 12:27:06;;;;;;;4.07;2.10;;;;;;;35.88;24.92;100631.88;4999263;28;20045;-83